Time;durP1;ratioP1;P1;durP2;ratioP2;P2;SDS_P1;SDS_P2;PMS_P1;PMS_P2;Temp;Humidity;BMP_temperature;BMP_pressure;BME280_temperature;BME280_humidity;BME280_pressure;Samples;Min_cycle;Max_cycle;Signal;HPM_P1;HPM_P2
2020/12/30 05:01:01;;;;;;;21.85;14.13;;;4.60;99.90;;;;;;5681811;23;20235;-71
2020/12/30 05:03:29;;;;;;;22.70;14.75;;;4.60;99.90;;;;;;4973776;28;20217;-71
2020/12/30 05:05:56;;;;;;;23.25;15.05;;;4.60;99.90;;;;;;4973459;28;20208;-71
2020/12/30 05:08:22;;;;;;;18.67;12.77;;;4.60;99.90;;;;;;4974709;28;20236;-71
2020/12/30 05:10:52;;;;;;;20.13;14.70;;;4.60;99.90;;;;;;4967868;28;20233;-71
2020/12/30 05:13:18;;;;;;;19.40;13.52;;;4.60;99.90;;;;;;4955349;28;20215;-71
2020/12/30 05:15:44;;;;;;;26.83;14.13;;;4.60;99.90;;;;;;4955028;28;20235;-71
2020/12/30 05:18:11;;;;;;;19.77;14.82;;;4.60;99.90;;;;;;4954630;28;20225;-71
2020/12/30 05:20:38;;;;;;;22.65;14.95;;;4.60;99.90;;;;;;4954434;28;20237;-71
2020/12/30 05:23:05;;;;;;;20.48;14.27;;;4.60;99.90;;;;;;4954844;28;20209;-72
2020/12/30 05:25:34;;;;;;;20.17;14.65;;;4.60;99.90;;;;;;4955024;28;20205;-72
2020/12/30 05:28:02;;;;;;;19.67;14.63;;;4.60;99.90;;;;;;4953843;28;20201;-72
2020/12/30 05:30:30;;;;;;;18.27;13.93;;;4.60;99.90;;;;;;4954519;28;20229;-72
2020/12/30 05:32:56;;;;;;;20.50;13.02;;;4.60;99.90;;;;;;4954197;28;20588;-72
2020/12/30 05:35:23;;;;;;;17.58;12.70;;;4.60;99.90;;;;;;4954135;28;20209;-72
2020/12/30 05:37:49;;;;;;;13.90;12.00;;;4.60;99.90;;;;;;4954748;28;20232;-71
2020/12/30 05:40:19;;;;;;;19.08;12.27;;;4.60;99.90;;;;;;4954114;28;20213;-71
2020/12/30 05:42:46;;;;;;;20.52;13.35;;;4.60;99.90;;;;;;4953747;28;20321;-71
2020/12/30 05:45:18;;;;;;;16.50;12.00;;;4.60;99.90;;;;;;4954532;28;20216;-71
2020/12/30 05:47:44;;;;;;;20.77;13.30;;;4.60;99.90;;;;;;4951966;28;20789;-70
2020/12/30 05:50:12;;;;;;;20.13;12.82;;;4.60;99.90;;;;;;4950803;29;20204;-70
2020/12/30 05:52:40;;;;;;;15.45;11.70;;;4.50;99.90;;;;;;4954355;29;20214;-72
2020/12/30 05:55:08;;;;;;;21.67;13.35;;;4.50;99.90;;;;;;4954461;28;20205;-71
2020/12/30 05:57:36;;;;;;;18.10;12.80;;;4.50;99.90;;;;;;4953874;28;20224;-71
2020/12/30 06:00:05;;;;;;;16.45;12.15;;;4.50;99.90;;;;;;4954399;28;20276;-72
2020/12/30 06:02:33;;;;;;;25.05;13.32;;;4.50;99.90;;;;;;4953743;28;20268;-72
2020/12/30 06:05:14;;;;;;;20.30;12.98;;;4.50;99.90;;;;;;4953435;28;20276;-71
2020/12/30 06:07:43;;;;;;;19.65;13.10;;;4.40;99.90;;;;;;4942504;28;20204;-72
2020/12/30 06:10:10;;;;;;;21.02;11.45;;;4.40;99.90;;;;;;4954390;28;20232;-72
2020/12/30 06:12:43;;;;;;;14.48;11.95;;;4.40;99.90;;;;;;4954260;28;20579;-72
2020/12/30 06:15:13;;;;;;;18.13;12.43;;;4.40;99.90;;;;;;4944146;28;20206;-70
2020/12/30 06:17:50;;;;;;;17.00;12.05;;;4.40;99.90;;;;;;4940585;29;20261;-71
2020/12/30 06:20:20;;;;;;;20.52;11.05;;;4.30;99.90;;;;;;4953088;28;20213;-71
2020/12/30 06:22:52;;;;;;;14.15;10.88;;;4.30;99.90;;;;;;4953812;28;20204;-71
2020/12/30 06:25:20;;;;;;;15.05;11.45;;;4.30;99.90;;;;;;4954070;28;20335;-71
2020/12/30 06:27:48;;;;;;;16.00;10.00;;;4.30;99.90;;;;;;4953482;28;20673;-70
2020/12/30 06:30:15;;;;;;;18.13;12.43;;;4.20;99.90;;;;;;4953303;28;20691;-70
2020/12/30 06:32:42;;;;;;;17.13;10.98;;;4.20;99.90;;;;;;4951490;28;20210;-70
2020/12/30 06:35:10;;;;;;;18.35;12.27;;;4.20;99.90;;;;;;4952502;28;20233;-70
2020/12/30 06:37:37;;;;;;;15.48;10.60;;;4.10;99.90;;;;;;4951119;28;20413;-71
2020/12/30 06:40:25;;;;;;;15.18;10.70;;;4.10;99.90;;;;;;4959770;28;20288;-71
2020/12/30 06:42:55;;;;;;;16.23;10.65;;;4.20;99.90;;;;;;4959410;28;20205;-71
2020/12/30 06:45:48;;;;;;;20.90;12.25;;;4.10;99.90;;;;;;4960332;28;20212;-70
2020/12/30 06:48:14;;;;;;;15.65;11.02;;;4.20;99.90;;;;;;4959806;28;20257;-71
2020/12/30 06:50:41;;;;;;;15.25;10.57;;;4.20;99.90;;;;;;4960086;28;20229;-72
2020/12/30 06:53:27;;;;;;;16.63;10.10;;;4.10;99.90;;;;;;4955538;28;20555;-71
2020/12/30 06:55:54;;;;;;;19.70;11.18;;;4.20;99.90;;;;;;4955890;28;20209;-71
2020/12/30 06:58:46;;;;;;;13.23;10.77;;;4.20;99.90;;;;;;4960115;28;20228;-71
2020/12/30 07:01:13;;;;;;;14.43;10.25;;;4.10;99.90;;;;;;4958730;28;20233;-71
2020/12/30 07:03:40;;;;;;;16.75;10.90;;;4.10;99.90;;;;;;4959871;29;20319;-71
2020/12/30 07:06:34;;;;;;;13.85;10.70;;;4.10;99.90;;;;;;4959809;28;20260;-71
2020/12/30 07:09:03;;;;;;;19.65;12.27;;;4.10;99.90;;;;;;4960232;28;20209;-71
2020/12/30 07:11:50;;;;;;;16.13;10.60;;;4.10;99.90;;;;;;4958031;28;20228;-71
2020/12/30 07:14:19;;;;;;;13.27;10.52;;;4.10;99.90;;;;;;4960171;28;20687;-71
2020/12/30 07:16:47;;;;;;;14.55;10.25;;;4.10;99.90;;;;;;4959346;28;20216;-71
2020/12/30 07:19:15;;;;;;;13.80;10.95;;;4.10;99.90;;;;;;4960513;28;20229;-71
2020/12/30 07:22:02;;;;;;;15.05;9.68;;;4.10;99.90;;;;;;4959074;28;20542;-71
2020/12/30 07:24:31;;;;;;;15.65;11.65;;;4.10;99.90;;;;;;4959864;28;20223;-71
2020/12/30 07:27:00;;;;;;;12.00;8.90;;;4.10;99.90;;;;;;4956192;29;20685;-72
2020/12/30 07:29:26;;;;;;;13.88;9.98;;;4.10;99.90;;;;;;4959514;28;20301;-72
2020/12/30 07:31:55;;;;;;;12.40;8.90;;;4.10;99.90;;;;;;4958921;28;20253;-72
2020/12/30 07:34:23;;;;;;;14.55;9.23;;;4.10;99.90;;;;;;4959593;28;20776;-73
2020/12/30 07:36:50;;;;;;;13.05;8.80;;;4.10;99.90;;;;;;4959381;28;20280;-72
2020/12/30 07:39:22;;;;;;;12.77;8.90;;;4.10;99.90;;;;;;4959633;28;20672;-72
2020/12/30 07:41:48;;;;;;;9.63;8.45;;;4.10;99.90;;;;;;4959091;28;20225;-73
2020/12/30 07:44:16;;;;;;;11.75;8.57;;;4.10;99.90;;;;;;4959156;28;20209;-70
2020/12/30 07:46:43;;;;;;;14.48;9.43;;;4.10;99.90;;;;;;4958929;28;20491;-69
2020/12/30 07:49:14;;;;;;;10.88;8.27;;;4.10;99.90;;;;;;4958880;28;20232;-70
2020/12/30 07:51:48;;;;;;;9.43;7.20;;;4.10;99.90;;;;;;4954623;28;20232;-70
2020/12/30 07:54:15;;;;;;;15.05;9.38;;;4.00;99.90;;;;;;4943477;29;20201;-70
2020/12/30 07:56:41;;;;;;;21.80;14.85;;;4.00;99.90;;;;;;4955862;28;20217;-70
2020/12/30 07:59:07;;;;;;;31.70;20.40;;;4.00;99.90;;;;;;4956435;28;20284;-70
2020/12/30 08:01:34;;;;;;;23.92;13.02;;;3.90;99.90;;;;;;4955888;28;20333;-71
2020/12/30 08:04:08;;;;;;;11.02;9.10;;;3.90;99.90;;;;;;4955585;28;20213;-69
2020/12/30 08:06:45;;;;;;;15.25;10.00;;;3.90;99.90;;;;;;4953025;28;20213;-71
2020/12/30 08:09:11;;;;;;;20.98;13.38;;;3.80;99.90;;;;;;4946790;29;20249;-70
2020/12/30 08:11:46;;;;;;;19.05;12.10;;;3.80;99.90;;;;;;4956105;28;20232;-71
2020/12/30 08:14:13;;;;;;;19.02;10.10;;;3.70;99.90;;;;;;4946842;29;20205;-70
2020/12/30 08:16:40;;;;;;;20.92;14.30;;;3.70;99.90;;;;;;4955920;28;20201;-70
2020/12/30 08:19:06;;;;;;;15.30;9.80;;;3.70;99.90;;;;;;4955723;28;20233;-70
2020/12/30 08:21:32;;;;;;;16.35;10.73;;;3.70;99.90;;;;;;4955726;28;20229;-70
2020/12/30 08:24:09;;;;;;;15.20;10.57;;;3.60;99.90;;;;;;4955168;28;20572;-70
2020/12/30 08:26:36;;;;;;;17.13;11.50;;;3.60;99.90;;;;;;4955305;29;20216;-70
2020/12/30 08:29:03;;;;;;;16.23;10.40;;;3.60;99.90;;;;;;4956039;28;20221;-70
2020/12/30 08:31:46;;;;;;;14.80;11.32;;;3.60;99.90;;;;;;4955554;28;20225;-70
2020/12/30 08:34:17;;;;;;;12.80;9.80;;;3.50;99.90;;;;;;4938932;29;20210;-70
2020/12/30 08:36:47;;;;;;;21.30;11.38;;;3.50;99.90;;;;;;4949306;29;20212;-71
2020/12/30 08:39:15;;;;;;;12.93;10.10;;;3.50;99.90;;;;;;4955536;28;20240;-70
2020/12/30 08:41:49;;;;;;;16.67;10.02;;;3.60;99.90;;;;;;4954765;28;20319;-71
2020/12/30 08:44:18;;;;;;;14.80;9.60;;;3.60;99.90;;;;;;4955160;28;20205;-71
2020/12/30 08:46:49;;;;;;;12.45;8.88;;;3.60;99.90;;;;;;4954171;28;20212;-71
2020/12/30 08:49:19;;;;;;;17.70;10.20;;;3.60;99.90;;;;;;4955383;28;20656;-70
2020/12/30 08:51:46;;;;;;;14.85;10.00;;;3.60;99.90;;;;;;4954709;28;20252;-70
2020/12/30 08:54:16;;;;;;;14.95;10.13;;;3.60;99.90;;;;;;4955304;28;20208;-70
2020/12/30 08:56:44;;;;;;;13.50;9.75;;;3.50;99.90;;;;;;4954792;28;20237;-69
2020/12/30 08:59:20;;;;;;;17.90;10.85;;;3.60;99.90;;;;;;4955463;28;20248;-70
2020/12/30 09:01:46;;;;;;;12.32;8.75;;;3.60;99.90;;;;;;4953529;28;20693;-70
2020/12/30 09:04:13;;;;;;;16.20;9.50;;;3.60;99.90;;;;;;4955314;29;20609;-69
2020/12/30 09:06:41;;;;;;;13.15;9.13;;;3.60;99.90;;;;;;4955166;28;20205;-69
2020/12/30 09:09:12;;;;;;;13.65;9.38;;;3.60;99.90;;;;;;4955225;28;20209;-70
2020/12/30 09:11:39;;;;;;;14.43;10.75;;;3.60;99.90;;;;;;4945451;28;20574;-70
2020/12/30 09:14:15;;;;;;;11.20;8.68;;;3.60;99.90;;;;;;4950807;28;20309;-69
2020/12/30 09:17:00;;;;;;;15.57;10.15;;;3.60;99.90;;;;;;4952257;28;20589;-69
2020/12/30 09:19:26;;;;;;;14.52;10.00;;;3.60;99.90;;;;;;4950923;28;20849;-69
2020/12/30 09:22:05;;;;;;;16.92;9.93;;;3.60;99.90;;;;;;4952858;28;20229;-69
2020/12/30 09:24:35;;;;;;;14.05;10.30;;;3.70;99.90;;;;;;4954201;28;20585;-71
2020/12/30 09:27:15;;;;;;;10.13;9.07;;;3.70;99.90;;;;;;4953547;29;20300;-69
2020/12/30 09:29:41;;;;;;;16.52;8.85;;;3.70;99.90;;;;;;4953840;29;20585;-69
2020/12/30 09:32:08;;;;;;;13.30;9.15;;;3.70;99.90;;;;;;4953009;28;20237;-69
2020/12/30 09:34:34;;;;;;;16.17;9.77;;;3.70;99.90;;;;;;4952536;28;20217;-69
2020/12/30 09:37:01;;;;;;;15.20;9.75;;;3.70;99.90;;;;;;4955167;29;20205;-69
2020/12/30 09:39:28;;;;;;;14.20;9.57;;;3.80;99.90;;;;;;4952275;28;20277;-69
2020/12/30 09:42:02;;;;;;;15.05;10.32;;;3.90;99.90;;;;;;4954471;29;20284;-69
2020/12/30 09:44:28;;;;;;;13.95;10.10;;;3.90;99.90;;;;;;4952956;28;20579;-71
2020/12/30 09:46:55;;;;;;;13.40;9.95;;;3.90;99.90;;;;;;4951152;28;20205;-70
2020/12/30 09:49:22;;;;;;;15.82;10.98;;;4.00;99.90;;;;;;4955017;28;20342;-70
2020/12/30 09:51:54;;;;;;;11.90;9.07;;;4.10;99.90;;;;;;4942751;28;20320;-70
2020/12/30 09:54:21;;;;;;;16.13;9.77;;;4.10;99.90;;;;;;4950321;28;20210;-69
2020/12/30 09:56:50;;;;;;;13.50;9.02;;;4.10;99.90;;;;;;4952584;29;20256;-69
2020/12/30 09:59:20;;;;;;;17.73;11.48;;;4.20;99.90;;;;;;4952040;28;20265;-70
2020/12/30 10:01:47;;;;;;;13.48;8.52;;;4.20;99.90;;;;;;4948741;28;20240;-71
2020/12/30 10:04:14;;;;;;;14.00;11.70;;;4.20;99.90;;;;;;4951108;28;20205;-69
2020/12/30 10:06:40;;;;;;;10.55;9.52;;;4.20;99.90;;;;;;4953915;28;20205;-70
2020/12/30 10:09:06;;;;;;;14.80;9.55;;;4.20;99.90;;;;;;4951910;28;20224;-69
2020/12/30 10:11:33;;;;;;;15.40;10.27;;;4.30;99.90;;;;;;4947423;28;20236;-69
2020/12/30 10:13:59;;;;;;;17.80;13.10;;;4.30;99.90;;;;;;4949726;28;20285;-69
2020/12/30 10:16:30;;;;;;;16.33;11.70;;;4.40;99.90;;;;;;4944295;28;20556;-67
2020/12/30 10:18:57;;;;;;;15.32;10.75;;;4.40;99.90;;;;;;4952704;28;20225;-68
2020/12/30 10:21:28;;;;;;;12.98;10.10;;;4.40;99.90;;;;;;4955860;28;20259;-68
2020/12/30 10:23:54;;;;;;;21.88;13.98;;;4.40;99.90;;;;;;4954538;28;20208;-69
2020/12/30 10:26:20;;;;;;;20.60;11.90;;;4.40;99.90;;;;;;4951663;29;20260;-69
2020/12/30 10:28:47;;;;;;;15.15;11.00;;;4.40;99.90;;;;;;4944546;28;20256;-70
2020/12/30 10:31:13;;;;;;;18.92;13.73;;;4.40;99.90;;;;;;4940867;29;20669;-70
2020/12/30 10:33:40;;;;;;;13.15;9.40;;;4.40;99.90;;;;;;4952856;28;20316;-70
2020/12/30 10:36:06;;;;;;;10.23;7.95;;;4.50;99.90;;;;;;4953840;29;20213;-70
2020/12/30 10:38:32;;;;;;;16.83;11.63;;;4.50;99.90;;;;;;4953932;29;20716;-69
2020/12/30 10:40:59;;;;;;;17.00;9.85;;;4.60;99.90;;;;;;4948125;29;20236;-70
2020/12/30 10:43:25;;;;;;;17.38;10.10;;;4.60;99.90;;;;;;4953051;28;20300;-70
2020/12/30 10:45:52;;;;;;;12.55;9.48;;;4.60;99.90;;;;;;4951508;28;20244;-70
2020/12/30 10:48:18;;;;;;;9.93;8.65;;;4.60;99.90;;;;;;4953433;28;20205;-70
2020/12/30 10:50:44;;;;;;;13.95;10.65;;;4.70;99.90;;;;;;4953137;28;20235;-70
2020/12/30 10:53:11;;;;;;;12.68;9.23;;;4.70;99.90;;;;;;4952459;28;20223;-71
2020/12/30 10:55:37;;;;;;;14.15;10.15;;;4.70;99.90;;;;;;4951109;28;20678;-70
2020/12/30 10:58:03;;;;;;;12.00;9.27;;;4.90;99.90;;;;;;4953441;28;20301;-70
2020/12/30 11:00:29;;;;;;;11.07;8.85;;;5.00;99.90;;;;;;4951744;28;20534;-70
2020/12/30 11:02:56;;;;;;;9.85;8.85;;;5.00;99.90;;;;;;4948468;28;20225;-70
2020/12/30 11:05:22;;;;;;;11.23;7.85;;;5.00;99.90;;;;;;4953666;28;20605;-69
2020/12/30 11:07:48;;;;;;;15.15;10.07;;;5.00;99.90;;;;;;4952057;28;20580;-70
2020/12/30 11:10:14;;;;;;;14.40;9.45;;;5.00;99.90;;;;;;4951039;28;20498;-70
2020/12/30 11:12:41;;;;;;;9.60;8.10;;;5.00;99.90;;;;;;4939416;29;20220;-69
2020/12/30 11:15:07;;;;;;;13.45;10.32;;;5.00;99.90;;;;;;4952270;28;20209;-68
2020/12/30 11:17:34;;;;;;;14.82;10.60;;;5.10;99.90;;;;;;4949521;28;20475;-68
2020/12/30 11:20:01;;;;;;;10.68;8.77;;;5.10;99.90;;;;;;4952811;28;20548;-68
2020/12/30 11:22:29;;;;;;;15.43;11.07;;;5.10;99.90;;;;;;4951129;28;20229;-69
2020/12/30 11:24:55;;;;;;;13.48;8.98;;;5.10;99.90;;;;;;4952585;28;20278;-68
2020/12/30 11:27:21;;;;;;;16.75;11.48;;;5.10;99.90;;;;;;4954522;29;20220;-69
2020/12/30 11:29:47;;;;;;;10.45;9.23;;;5.10;99.90;;;;;;4956413;28;20209;-69
2020/12/30 11:32:13;;;;;;;11.93;7.95;;;5.20;99.90;;;;;;4954897;28;20288;-69
2020/12/30 11:34:40;;;;;;;12.85;8.65;;;5.30;99.90;;;;;;4954071;28;20677;-69
2020/12/30 11:37:07;;;;;;;10.20;7.95;;;5.30;99.90;;;;;;4957854;28;20213;-68
2020/12/30 11:39:33;;;;;;;10.10;8.10;;;5.40;99.90;;;;;;4954045;28;20258;-68
2020/12/30 11:41:59;;;;;;;12.68;9.43;;;5.50;99.90;;;;;;4954509;28;20228;-68
2020/12/30 11:44:25;;;;;;;10.75;7.60;;;5.50;99.90;;;;;;4956164;29;20221;-68
2020/12/30 11:46:52;;;;;;;11.10;7.18;;;5.60;99.90;;;;;;4955620;29;20228;-68
2020/12/30 11:49:18;;;;;;;10.57;9.05;;;5.60;99.90;;;;;;4956850;28;20247;-68
2020/12/30 11:51:45;;;;;;;10.18;6.97;;;5.60;99.90;;;;;;4953172;28;20253;-68
2020/12/30 11:54:12;;;;;;;9.68;8.68;;;5.60;99.90;;;;;;4954804;28;20602;-68
2020/12/30 11:56:38;;;;;;;9.77;7.35;;;5.60;99.90;;;;;;4955143;28;20582;-68
2020/12/30 11:59:04;;;;;;;8.52;6.00;;;5.60;99.90;;;;;;4956371;28;20229;-69
2020/12/30 12:01:34;;;;;;;7.57;6.80;;;5.50;99.90;;;;;;4950529;28;20241;-69
2020/12/30 12:04:02;;;;;;;7.13;6.22;;;5.50;99.90;;;;;;4954048;28;20205;-69
2020/12/30 12:06:29;;;;;;;7.70;6.88;;;5.40;99.90;;;;;;4956050;29;20205;-69
2020/12/30 12:08:55;;;;;;;7.78;6.78;;;5.40;99.90;;;;;;4954391;28;20197;-69
2020/12/30 12:11:22;;;;;;;9.48;7.85;;;5.50;99.90;;;;;;4948417;28;20229;-69
2020/12/30 12:13:48;;;;;;;8.88;6.78;;;5.50;99.90;;;;;;4947825;28;20213;-69
2020/12/30 12:16:14;;;;;;;7.85;7.00;;;5.60;99.90;;;;;;4953403;28;20205;-69
2020/12/30 12:18:40;;;;;;;9.60;7.32;;;5.60;99.90;;;;;;4955996;29;20237;-69
2020/12/30 12:21:07;;;;;;;9.95;7.07;;;5.70;99.90;;;;;;4953737;29;20233;-68
2020/12/30 12:23:33;;;;;;;10.52;7.45;;;5.70;99.90;;;;;;4953809;28;20210;-69
2020/12/30 12:25:59;;;;;;;7.65;6.78;;;5.70;99.90;;;;;;4950233;28;20213;-68
2020/12/30 12:28:54;;;;;;;8.95;6.95;;;5.80;99.90;;;;;;4952402;28;20273;-68
2020/12/30 12:31:20;;;;;;;8.05;6.85;;;5.80;99.90;;;;;;4954474;28;20275;-69
2020/12/30 12:33:46;;;;;;;9.25;6.63;;;5.80;99.90;;;;;;4955330;28;20210;-68
2020/12/30 12:36:13;;;;;;;11.25;7.97;;;5.80;99.90;;;;;;4954909;28;20217;-69
2020/12/30 12:38:39;;;;;;;12.43;7.78;;;5.80;99.90;;;;;;4949318;28;20320;-68
2020/12/30 12:41:05;;;;;;;7.78;6.53;;;5.80;99.90;;;;;;4955462;28;20237;-68
2020/12/30 12:43:32;;;;;;;9.00;7.70;;;5.80;99.90;;;;;;4953588;28;20843;-70
2020/12/30 12:45:59;;;;;;;6.78;6.18;;;5.70;99.90;;;;;;4938859;29;20264;-69
2020/12/30 12:48:25;;;;;;;9.85;7.63;;;5.70;99.90;;;;;;4955343;28;20241;-70
2020/12/30 12:50:51;;;;;;;10.75;7.13;;;5.70;99.90;;;;;;4956093;28;20243;-71
2020/12/30 12:53:18;;;;;;;6.25;5.65;;;5.80;99.90;;;;;;4957439;28;20205;-71
2020/12/30 12:55:44;;;;;;;9.10;8.15;;;5.70;99.90;;;;;;4961338;29;20226;-70
2020/12/30 12:58:10;;;;;;;10.07;8.02;;;5.80;99.90;;;;;;4959913;28;20240;-72
2020/12/30 13:00:36;;;;;;;6.85;6.15;;;5.70;99.90;;;;;;4961110;28;20245;-75
2020/12/30 13:03:03;;;;;;;10.02;7.97;;;5.80;99.90;;;;;;4960618;28;20232;-72
2020/12/30 13:05:29;;;;;;;9.95;8.23;;;5.80;99.90;;;;;;4962826;28;20228;-74
2020/12/30 13:07:56;;;;;;;11.18;8.43;;;5.80;99.90;;;;;;4958759;28;20210;-70
2020/12/30 13:10:22;;;;;;;10.30;8.43;;;5.70;99.90;;;;;;4958868;28;20218;-71
2020/12/30 13:12:48;;;;;;;9.25;7.32;;;5.70;99.90;;;;;;4959936;29;20212;-69
2020/12/30 13:15:14;;;;;;;13.93;10.80;;;5.80;99.90;;;;;;4959385;28;20713;-70
2020/12/30 13:17:40;;;;;;;7.97;7.20;;;5.80;99.90;;;;;;4956805;28;20209;-70
2020/12/30 13:20:07;;;;;;;12.70;8.40;;;5.80;99.90;;;;;;4959219;29;20209;-69
2020/12/30 13:22:34;;;;;;;10.93;8.77;;;5.80;99.90;;;;;;4957855;29;20221;-70
2020/12/30 13:25:00;;;;;;;8.75;7.88;;;5.80;99.90;;;;;;4957855;28;20206;-70
2020/12/30 13:27:26;;;;;;;8.95;8.05;;;5.90;99.90;;;;;;4954667;28;20213;-70
2020/12/30 13:29:52;;;;;;;10.77;7.50;;;5.90;99.90;;;;;;4957781;28;20197;-70
2020/12/30 13:32:18;;;;;;;9.20;8.27;;;5.90;99.90;;;;;;4954730;28;20240;-71
2020/12/30 13:34:44;;;;;;;12.55;8.27;;;5.90;99.90;;;;;;4951560;28;20206;-72
2020/12/30 13:37:11;;;;;;;9.70;8.20;;;5.80;99.90;;;;;;4958215;28;20260;-71
2020/12/30 13:39:37;;;;;;;9.57;8.57;;;5.80;99.90;;;;;;4959776;29;20229;-72
2020/12/30 13:42:03;;;;;;;10.50;9.48;;;5.80;99.90;;;;;;4959308;28;20353;-72
2020/12/30 13:44:30;;;;;;;12.20;9.75;;;5.80;99.90;;;;;;4952118;28;20224;-72
2020/12/30 13:46:56;;;;;;;11.95;10.48;;;5.80;99.90;;;;;;4959089;28;20213;-72
2020/12/30 13:49:22;;;;;;;11.98;9.55;;;5.80;99.90;;;;;;4953063;29;20195;-73
2020/12/30 13:51:49;;;;;;;10.38;9.38;;;5.80;99.90;;;;;;4935899;29;20320;-73
2020/12/30 13:54:16;;;;;;;9.43;8.40;;;5.70;99.90;;;;;;4936171;29;20210;-72
2020/12/30 13:56:42;;;;;;;9.90;8.90;;;5.70;99.90;;;;;;4940811;29;20225;-72
2020/12/30 13:59:08;;;;;;;14.20;8.63;;;5.70;99.90;;;;;;4953049;28;20307;-73
2020/12/30 14:01:34;;;;;;;10.23;9.30;;;5.70;99.90;;;;;;4943515;28;20343;-73
2020/12/30 14:04:01;;;;;;;10.93;9.82;;;5.70;99.90;;;;;;4952713;29;20213;-71
2020/12/30 14:06:27;;;;;;;14.48;10.90;;;5.60;99.90;;;;;;4954619;28;20219;-73
2020/12/30 14:08:53;;;;;;;12.60;11.23;;;5.60;99.90;;;;;;4953202;28;20209;-73
2020/12/30 14:11:20;;;;;;;13.63;11.05;;;5.70;99.90;;;;;;4953927;28;20221;-72
2020/12/30 14:13:47;;;;;;;17.15;11.82;;;5.60;99.90;;;;;;4955475;28;20212;-73
2020/12/30 14:16:13;;;;;;;17.92;12.15;;;5.60;99.90;;;;;;4954441;28;20593;-72
2020/12/30 14:18:40;;;;;;;16.80;12.55;;;5.60;99.90;;;;;;4954948;29;20225;-72
2020/12/30 14:21:06;;;;;;;25.77;16.63;;;5.70;99.90;;;;;;4958525;28;20229;-73
2020/12/30 14:23:32;;;;;;;12.48;11.15;;;5.60;99.90;;;;;;4959260;28;20267;-73
2020/12/30 14:25:58;;;;;;;14.80;11.38;;;5.60;99.90;;;;;;4958058;28;20220;-73
2020/12/30 14:28:25;;;;;;;15.85;10.80;;;5.60;99.90;;;;;;4959048;28;20205;-73
2020/12/30 14:30:51;;;;;;;13.95;12.35;;;5.60;99.90;;;;;;4947437;28;20230;-71
2020/12/30 14:33:18;;;;;;;17.25;11.07;;;5.60;99.90;;;;;;4937172;29;20213;-73
2020/12/30 14:35:44;;;;;;;23.40;14.80;;;5.60;99.90;;;;;;4943328;28;20232;-73
2020/12/30 14:38:10;;;;;;;14.25;11.48;;;5.60;99.90;;;;;;4952805;28;20227;-72
2020/12/30 14:40:37;;;;;;;19.05;13.25;;;5.60;99.90;;;;;;4953806;28;20236;-71
2020/12/30 14:43:03;;;;;;;11.65;9.35;;;5.60;99.90;;;;;;4953327;28;20210;-71
2020/12/30 14:45:30;;;;;;;21.48;11.95;;;5.50;99.90;;;;;;4952150;28;20213;-72
2020/12/30 14:47:56;;;;;;;17.27;11.68;;;5.50;99.90;;;;;;4955665;28;20223;-72
2020/12/30 14:50:22;;;;;;;20.65;14.77;;;5.50;99.90;;;;;;4956344;28;20205;-72
2020/12/30 14:52:49;;;;;;;21.73;12.73;;;5.50;99.90;;;;;;4955843;28;20212;-72
2020/12/30 14:55:16;;;;;;;20.70;15.13;;;5.60;99.90;;;;;;4955604;28;20237;-72
2020/12/30 14:57:42;;;;;;;36.88;27.50;;;5.60;99.90;;;;;;4955055;28;20208;-69
2020/12/30 15:00:08;;;;;;;11.52;9.98;;;5.60;99.90;;;;;;4954832;28;20207;-70
2020/12/30 15:02:36;;;;;;;14.23;11.55;;;5.60;99.90;;;;;;4956126;28;20217;-69
2020/12/30 15:05:02;;;;;;;16.00;11.60;;;5.60;99.90;;;;;;4957519;28;20315;-69
2020/12/30 15:07:28;;;;;;;14.73;10.32;;;5.60;99.90;;;;;;4957075;28;20256;-70
2020/12/30 15:09:54;;;;;;;13.13;10.68;;;5.60;99.90;;;;;;4959007;28;20208;-73
2020/12/30 15:12:20;;;;;;;13.90;11.50;;;5.60;99.90;;;;;;4953100;28;20280;-72
2020/12/30 15:14:46;;;;;;;14.25;10.35;;;5.60;99.90;;;;;;4956876;28;20205;-71
2020/12/30 15:17:13;;;;;;;13.20;10.60;;;5.60;99.90;;;;;;4950460;28;20198;-71
2020/12/30 15:19:40;;;;;;;13.93;11.30;;;5.50;99.90;;;;;;4952955;29;20604;-72
2020/12/30 15:22:06;;;;;;;19.42;15.40;;;5.50;99.90;;;;;;4956409;28;20281;-72
2020/12/30 15:24:32;;;;;;;12.18;10.90;;;5.50;99.90;;;;;;4957102;29;20220;-72
2020/12/30 15:26:58;;;;;;;16.98;11.88;;;5.50;99.90;;;;;;4952873;29;20202;-72
2020/12/30 15:29:24;;;;;;;12.20;9.80;;;5.50;99.90;;;;;;4938413;29;20606;-71
2020/12/30 15:31:50;;;;;;;15.60;13.50;;;5.40;99.90;;;;;;4950862;29;20228;-71
2020/12/30 15:34:17;;;;;;;15.50;12.80;;;5.40;99.90;;;;;;4957487;28;20245;-70
2020/12/30 15:36:44;;;;;;;13.32;11.93;;;5.40;99.90;;;;;;4956729;29;20209;-69
2020/12/30 15:39:10;;;;;;;17.20;11.85;;;5.40;99.90;;;;;;4938456;29;20277;-71
2020/12/30 15:41:36;;;;;;;13.95;11.75;;;5.40;99.90;;;;;;4947506;29;20240;-71
2020/12/30 15:44:02;;;;;;;12.77;10.80;;;5.40;99.90;;;;;;4948479;29;20224;-71
2020/12/30 15:46:29;;;;;;;15.45;12.40;;;5.40;99.90;;;;;;4956798;29;20213;-71
2020/12/30 15:48:55;;;;;;;18.42;14.02;;;5.40;99.90;;;;;;4945595;28;20206;-71
2020/12/30 15:51:21;;;;;;;17.55;13.60;;;5.40;99.90;;;;;;4956344;29;20236;-72
2020/12/30 15:53:48;;;;;;;13.45;11.25;;;5.40;99.90;;;;;;4945183;29;20726;-71
2020/12/30 15:56:17;;;;;;;15.77;11.60;;;5.40;99.90;;;;;;4937328;29;20218;-71
2020/12/30 15:58:43;;;;;;;16.45;10.82;;;5.40;99.90;;;;;;4953943;29;20656;-71
2020/12/30 16:01:10;;;;;;;11.38;9.43;;;5.30;99.90;;;;;;4950981;28;20230;-71
2020/12/30 16:03:36;;;;;;;15.10;11.00;;;5.40;99.90;;;;;;4936708;29;20241;-72
2020/12/30 16:06:06;;;;;;;14.82;11.07;;;5.30;99.90;;;;;;4953199;29;20216;-72
2020/12/30 16:08:33;;;;;;;14.75;11.68;;;5.30;99.90;;;;;;4956040;29;20217;-70
2020/12/30 16:11:00;;;;;;;13.70;11.55;;;5.40;99.90;;;;;;4937542;28;20233;-70
2020/12/30 16:13:26;;;;;;;18.45;14.80;;;5.50;99.90;;;;;;4936894;29;20269;-70
2020/12/30 16:15:52;;;;;;;17.25;13.98;;;5.60;99.90;;;;;;4946810;29;20213;-70
2020/12/30 16:18:19;;;;;;;20.48;15.90;;;5.60;99.90;;;;;;4948344;29;20334;-71
2020/12/30 16:20:45;;;;;;;18.77;12.48;;;5.70;99.90;;;;;;4939966;29;20234;-72
2020/12/30 16:23:11;;;;;;;16.08;11.77;;;5.70;99.90;;;;;;4939681;28;20213;-72
2020/12/30 16:25:37;;;;;;;14.20;11.63;;;5.70;99.90;;;;;;4940576;29;20285;-71
2020/12/30 16:28:05;;;;;;;17.15;11.93;;;5.60;99.90;;;;;;4955967;29;20591;-72
2020/12/30 16:30:31;;;;;;;13.63;12.23;;;5.50;99.90;;;;;;4957613;29;20232;-70
2020/12/30 16:32:57;;;;;;;16.83;12.45;;;5.40;99.90;;;;;;4950242;28;20212;-71
2020/12/30 16:35:23;;;;;;;18.33;10.38;;;5.40;99.90;;;;;;4951045;28;20300;-72
2020/12/30 16:37:49;;;;;;;20.90;15.73;;;5.30;99.90;;;;;;4942703;29;20201;-72
2020/12/30 16:40:15;;;;;;;14.90;11.15;;;5.30;99.90;;;;;;4955949;28;20233;-72
2020/12/30 16:42:41;;;;;;;20.35;15.48;;;5.20;99.90;;;;;;4954387;28;20208;-72
2020/12/30 16:45:08;;;;;;;17.02;13.88;;;5.20;99.90;;;;;;4951425;28;20709;-73
2020/12/30 16:47:34;;;;;;;18.42;12.88;;;5.30;99.90;;;;;;4941266;28;20223;-71
2020/12/30 16:50:01;;;;;;;19.63;14.52;;;5.30;99.90;;;;;;4953297;29;20611;-72
2020/12/30 16:52:27;;;;;;;16.13;12.50;;;5.20;99.90;;;;;;4956967;28;20678;-72
2020/12/30 16:54:53;;;;;;;21.48;15.25;;;5.20;99.90;;;;;;4954197;28;20209;-72
2020/12/30 16:57:19;;;;;;;18.88;13.57;;;5.30;99.90;;;;;;4956846;28;20666;-72
2020/12/30 16:59:45;;;;;;;23.02;15.27;;;5.20;99.90;;;;;;4954602;28;20701;-72
2020/12/30 17:02:12;;;;;;;20.13;14.90;;;5.20;99.90;;;;;;4955000;29;20242;-73
2020/12/30 17:04:38;;;;;;;19.60;12.82;;;5.30;99.90;;;;;;4959231;28;20531;-73
2020/12/30 17:07:04;;;;;;;19.60;14.10;;;5.20;99.90;;;;;;4948516;28;20217;-72
2020/12/30 17:09:30;;;;;;;19.05;14.20;;;5.30;99.90;;;;;;4959894;28;20214;-73
2020/12/30 17:11:58;;;;;;;19.45;14.90;;;5.30;99.90;;;;;;4947814;28;20336;-73
2020/12/30 17:14:25;;;;;;;20.08;14.90;;;5.30;99.90;;;;;;4953976;28;20254;-73
2020/12/30 17:16:52;;;;;;;20.70;15.98;;;5.30;99.90;;;;;;4954739;28;20213;-72
2020/12/30 17:19:20;;;;;;;16.10;13.90;;;5.30;99.90;;;;;;4953074;28;20329;-73
2020/12/30 17:21:50;;;;;;;20.63;16.58;;;5.30;99.90;;;;;;4954632;28;20240;-72
2020/12/30 17:24:16;;;;;;;20.45;14.75;;;5.30;99.90;;;;;;4957756;28;20735;-72
2020/12/30 17:26:43;;;;;;;18.45;13.25;;;5.30;99.90;;;;;;4957125;28;20232;-71
2020/12/30 17:29:09;;;;;;;22.50;15.48;;;5.30;99.90;;;;;;4956515;28;20217;-73
2020/12/30 17:31:35;;;;;;;20.35;15.23;;;5.30;99.90;;;;;;4957957;28;20236;-72
2020/12/30 17:34:01;;;;;;;21.42;15.80;;;5.30;99.90;;;;;;4957505;28;20205;-72
2020/12/30 17:36:28;;;;;;;25.52;17.50;;;5.30;99.90;;;;;;4956728;28;20216;-71
2020/12/30 17:38:55;;;;;;;24.10;15.95;;;5.30;99.90;;;;;;4953372;28;20273;-71
2020/12/30 17:41:21;;;;;;;21.73;14.55;;;5.30;99.90;;;;;;4945657;29;20236;-71
2020/12/30 17:43:48;;;;;;;24.30;15.27;;;5.30;99.90;;;;;;4936805;28;20220;-71